Time;durP1;ratioP1;P1;durP2;ratioP2;P2;SDS_P1;SDS_P2;PMS_P1;PMS_P2;Temp;Humidity;BMP_temperature;BMP_pressure;BME280_temperature;BME280_humidity;BME280_pressure;Samples;Min_cycle;Max_cycle;Signal;HPM_P1;HPM_P2
2023/04/14 00:02:57;;;;;;;1.40;0.88;;;20.80;49.00;;;;;;6350386;28;20043;-42
2023/04/14 00:05:59;;;;;;;1.83;0.80;;;20.90;49.30;;;;;;6350271;28;20043;-43
2023/04/14 00:09:00;;;;;;;1.63;0.80;;;20.80;49.20;;;;;;6350505;28;20043;-42
2023/04/14 00:12:05;;;;;;;2.92;0.63;;;20.80;49.30;;;;;;6350223;28;20067;-42
2023/04/14 00:15:08;;;;;;;1.25;0.50;;;20.80;49.20;;;;;;6350366;28;20039;-45
2023/04/14 00:18:09;;;;;;;2.00;0.60;;;20.70;49.20;;;;;;6349873;28;20482;-42
2023/04/14 00:21:12;;;;;;;0.88;0.50;;;21.00;49.30;;;;;;6350404;28;20041;-42
2023/04/14 00:24:13;;;;;;;1.58;0.55;;;20.60;49.10;;;;;;6349725;28;20047;-44
2023/04/14 00:27:15;;;;;;;;;;;21.10;49.30;;;;;;6350739;28;20044;-43
2023/04/14 00:30:17;;;;;;;1.35;0.60;;;20.70;49.40;;;;;;6349990;28;19919;-45
2023/04/14 00:33:19;;;;;;;;;;;20.80;49.00;;;;;;6350330;28;20044;-43
2023/04/14 00:36:20;;;;;;;1.00;0.45;;;21.80;50.10;;;;;;6350044;28;19947;-42
2023/04/14 00:39:22;;;;;;;0.65;0.32;;;20.80;49.30;;;;;;6349974;28;20043;-42
2023/04/14 00:42:24;;;;;;;0.50;0.30;;;20.60;49.10;;;;;;6349950;28;20511;-47
2023/04/14 00:45:26;;;;;;;0.50;0.32;;;20.80;49.20;;;;;;6331371;28;20043;-44
2023/04/14 00:48:28;;;;;;;0.60;0.30;;;20.80;49.20;;;;;;6349803;28;20043;-44
2023/04/14 00:51:31;;;;;;;0.50;0.30;;;20.80;49.10;;;;;;6349624;28;20548;-44
2023/04/14 00:54:33;;;;;;;0.40;0.40;;;20.60;48.80;;;;;;6349447;28;20069;-45
2023/04/14 00:57:36;;;;;;;0.80;0.30;;;20.70;49.00;;;;;;6349464;28;20044;-44
2023/04/14 01:00:38;;;;;;;0.63;0.30;;;20.70;64.50;;;;;;6366226;22;20169;-49
2023/04/14 01:03:41;;;;;;;0.38;0.30;;;20.90;45.70;;;;;;6272926;28;20422;-50
2023/04/14 01:06:43;;;;;;;0.50;0.40;;;20.80;49.20;;;;;;6274516;28;20091;-51
2023/04/14 01:09:45;;;;;;;0.20;0.20;;;20.60;49.00;;;;;;6273919;28;20052;-52
2023/04/14 01:13:01;;;;;;;0.77;0.40;;;21.10;49.40;;;;;;6274132;28;20488;-52
2023/04/14 01:16:11;;;;;;;0.60;0.20;;;21.00;49.10;;;;;;6274537;28;20048;-51
2023/04/14 01:19:31;;;;;;;0.43;0.30;;;20.90;49.00;;;;;;6274567;28;20045;-50
2023/04/14 01:22:37;;;;;;;0.32;0.20;;;21.30;49.10;;;;;;6274257;28;20036;-51
2023/04/14 01:26:08;;;;;;;0.63;0.30;;;20.60;48.80;;;;;;6274071;28;20040;-52
2023/04/14 01:29:32;;;;;;;0.45;0.40;;;20.80;48.90;;;;;;6273453;28;20041;-50
2023/04/14 01:32:43;;;;;;;0.40;0.20;;;20.60;48.80;;;;;;6273515;28;20059;-52
2023/04/14 01:35:51;;;;;;;0.57;0.30;;;21.10;49.10;;;;;;6272948;28;20045;-52
2023/04/14 01:38:55;;;;;;;0.45;0.30;;;20.80;48.90;;;;;;6273813;28;20040;-53
2023/04/14 01:41:58;;;;;;;0.80;0.28;;;20.60;48.90;;;;;;6273221;28;20049;-52
2023/04/14 01:45:04;;;;;;;;;;;20.90;49.20;;;;;;6273431;28;20052;-53
2023/04/14 01:48:07;;;;;;;0.28;0.20;;;21.00;49.30;;;;;;6254608;28;19921;-53
2023/04/14 01:51:11;;;;;;;0.52;0.30;;;20.90;49.10;;;;;;6272808;28;20091;-53
2023/04/14 01:54:23;;;;;;;0.98;0.50;;;20.90;49.10;;;;;;6272828;28;20040;-54
2023/04/14 01:57:27;;;;;;;0.43;0.30;;;20.80;49.00;;;;;;6273220;28;20523;-52
2023/04/14 02:00:29;;;;;;;0.60;0.30;;;21.00;49.20;;;;;;6273008;28;20041;-52
2023/04/14 02:03:33;;;;;;;0.68;0.45;;;21.00;49.30;;;;;;6255109;28;20041;-51
2023/04/14 02:06:36;;;;;;;0.77;0.50;;;20.90;49.30;;;;;;6273201;28;20055;-54
2023/04/14 02:09:38;;;;;;;0.30;0.28;;;20.80;49.20;;;;;;6255805;28;20103;-51
2023/04/14 02:12:42;;;;;;;0.50;0.30;;;20.90;49.20;;;;;;6272617;28;20048;-53
2023/04/14 02:15:47;;;;;;;0.70;0.20;;;21.00;49.20;;;;;;6255734;28;20052;-51
2023/04/14 02:18:50;;;;;;;0.20;0.20;;;21.00;49.30;;;;;;6272863;28;20084;-52
2023/04/14 02:21:52;;;;;;;0.40;0.20;;;20.60;49.10;;;;;;6272640;28;20041;-52
2023/04/14 02:24:54;;;;;;;0.52;0.22;;;20.90;49.30;;;;;;6272333;28;20041;-53
2023/04/14 02:27:58;;;;;;;0.55;0.20;;;20.70;50.00;;;;;;6272669;28;20041;-53
2023/04/14 02:31:07;;;;;;;0.68;0.20;;;20.80;49.40;;;;;;6272369;28;20128;-51
2023/04/14 02:34:17;;;;;;;0.35;0.30;;;20.50;49.30;;;;;;6272236;28;20044;-52
2023/04/14 02:37:24;;;;;;;0.40;0.30;;;20.40;49.40;;;;;;6272586;28;20041;-53
2023/04/14 02:40:31;;;;;;;0.40;0.30;;;20.50;49.60;;;;;;6239266;28;20460;-48
2023/04/14 02:43:40;;;;;;;0.52;0.20;;;20.80;49.70;;;;;;6272501;28;20099;-53
2023/04/14 02:46:47;;;;;;;0.38;0.25;;;20.70;49.80;;;;;;6255228;28;20048;-51
2023/04/14 02:49:52;;;;;;;0.50;0.20;;;20.70;49.80;;;;;;6272160;28;20037;-53
2023/04/14 02:52:57;;;;;;;0.32;0.32;;;20.40;49.80;;;;;;6272106;28;20049;-51
2023/04/14 02:56:04;;;;;;;0.40;0.28;;;20.60;50.00;;;;;;6272263;28;20488;-52
2023/04/14 02:59:13;;;;;;;0.20;0.20;;;20.80;50.30;;;;;;6271755;28;20053;-47
2023/04/14 03:02:28;;;;;;;0.57;0.52;;;20.80;50.30;;;;;;6272417;28;20049;-53
2023/04/14 03:05:38;;;;;;;0.45;0.30;;;20.60;50.20;;;;;;6271945;28;20116;-52
2023/04/14 03:08:44;;;;;;;0.30;0.20;;;20.40;50.10;;;;;;6271621;28;20041;-52
2023/04/14 03:11:47;;;;;;;0.60;0.40;;;20.60;68.40;;;;;;6271977;28;20391;-52
2023/04/14 03:14:51;;;;;;;0.30;0.20;;;20.50;50.30;;;;;;6271803;28;20377;-52
2023/04/14 03:17:56;;;;;;;0.38;0.20;;;20.80;50.50;;;;;;6271656;28;20396;-53
2023/04/14 03:21:01;;;;;;;0.20;0.20;;;20.60;50.30;;;;;;6272020;28;20135;-53
2023/04/14 03:24:06;;;;;;;0.45;0.20;;;20.50;50.40;;;;;;6254246;28;20497;-52
2023/04/14 03:27:12;;;;;;;0.20;0.20;;;20.70;50.40;;;;;;6272307;28;20377;-51
2023/04/14 03:30:16;;;;;;;0.60;0.20;;;20.40;50.20;;;;;;6254239;28;20424;-53
2023/04/14 03:33:23;;;;;;;0.40;0.30;;;20.60;50.40;;;;;;6271567;28;20135;-53
2023/04/14 03:36:26;;;;;;;0.22;0.20;;;20.80;50.50;;;;;;6253732;28;20108;-53
2023/04/14 03:39:33;;;;;;;0.40;0.30;;;20.30;50.50;;;;;;6271231;28;20056;-52
2023/04/14 03:42:40;;;;;;;0.63;0.22;;;20.30;50.50;;;;;;6271581;28;20077;-52
2023/04/14 03:45:43;;;;;;;0.65;0.38;;;20.50;50.60;;;;;;6271391;28;20114;-52
2023/04/14 03:48:49;;;;;;;0.20;0.20;;;20.50;50.90;;;;;;6271183;28;20045;-50
2023/04/14 03:51:53;;;;;;;0.68;0.32;;;20.30;50.80;;;;;;6271487;28;20052;-53
2023/04/14 03:54:58;;;;;;;0.38;0.30;;;20.80;51.10;;;;;;6271336;28;20041;-53
2023/04/14 03:58:03;;;;;;;0.70;0.30;;;20.40;51.00;;;;;;6253943;28;20048;-52
2023/04/14 04:01:06;;;;;;;0.57;0.35;;;20.80;70.20;;;;;;6253741;28;20049;-53
2023/04/14 04:04:08;;;;;;;0.20;0.20;;;20.30;50.90;;;;;;6270871;28;20049;-54
2023/04/14 04:07:12;;;;;;;0.35;0.30;;;20.50;51.40;;;;;;6270851;28;20041;-53
2023/04/14 04:10:16;;;;;;;0.40;0.40;;;20.80;51.60;;;;;;6273275;28;20123;-52
2023/04/14 04:13:20;;;;;;;0.28;0.20;;;20.60;51.70;;;;;;6274894;28;20049;-53
2023/04/14 04:16:25;;;;;;;0.30;0.30;;;20.80;51.70;;;;;;6274846;28;20045;-53
2023/04/14 04:19:28;;;;;;;0.47;0.20;;;20.80;51.80;;;;;;6275353;28;20192;-53
2023/04/14 04:22:35;;;;;;;0.32;0.30;;;20.30;51.70;;;;;;6275401;28;20045;-53
2023/04/14 04:25:39;;;;;;;0.30;0.30;;;20.70;52.00;;;;;;6257367;28;20039;-54
2023/04/14 04:28:50;;;;;;;0.20;0.20;;;20.60;52.00;;;;;;6274721;28;20409;-52
2023/04/14 04:31:52;;;;;;;0.28;0.20;;;20.20;52.00;;;;;;6275111;28;20048;-50
2023/04/14 04:35:01;;;;;;;0.40;0.22;;;20.40;52.30;;;;;;6275059;28;20052;-53
2023/04/14 04:38:04;;;;;;;0.30;0.28;;;20.60;52.30;;;;;;6274914;28;20065;-51
2023/04/14 04:41:06;;;;;;;0.57;0.30;;;20.50;52.60;;;;;;6274804;28;20053;-53
2023/04/14 04:44:10;;;;;;;0.25;0.20;;;20.60;52.70;;;;;;6274547;28;20446;-53
2023/04/14 04:47:12;;;;;;;0.75;0.30;;;20.40;52.70;;;;;;6274386;28;20575;-52
2023/04/14 04:50:15;;;;;;;0.40;0.30;;;20.70;53.00;;;;;;6274713;28;20041;-53
2023/04/14 04:53:20;;;;;;;0.45;0.15;;;20.60;53.00;;;;;;6274532;28;20041;-52
2023/04/14 04:56:22;;;;;;;0.70;0.30;;;20.30;53.60;;;;;;6274253;28;20041;-54
2023/04/14 04:59:23;;;;;;;;;;;20.60;52.80;;;;;;6275132;28;20134;-51
2023/04/14 05:02:25;;;;;;;0.25;0.20;;;20.60;53.20;;;;;;6274228;28;19970;-53
2023/04/14 05:05:27;;;;;;;0.38;0.30;;;20.60;53.10;;;;;;6274702;28;20045;-53
2023/04/14 05:08:29;;;;;;;;;;;20.60;53.10;;;;;;6274420;28;20056;-53
2023/04/14 05:11:30;;;;;;;;;;;20.60;53.40;;;;;;6274952;28;19974;-53
2023/04/14 05:14:31;;;;;;;0.38;0.20;;;20.80;53.40;;;;;;6274098;28;19928;-52
2023/04/14 05:17:33;;;;;;;0.32;0.20;;;20.20;53.00;;;;;;6274405;28;20036;-53
2023/04/14 05:20:35;;;;;;;;;;;20.50;53.60;;;;;;6274223;28;20120;-54
2023/04/14 05:23:39;;;;;;;0.40;0.30;;;20.60;54.10;;;;;;6273698;28;20379;-52
2023/04/14 05:26:43;;;;;;;0.52;0.30;;;20.50;53.40;;;;;;6274000;28;20048;-50
2023/04/14 05:29:47;;;;;;;0.25;0.25;;;20.50;53.60;;;;;;6273746;28;20067;-53
2023/04/14 05:33:12;;;;;;;0.20;0.20;;;20.60;53.80;;;;;;6273633;28;20041;-50
2023/04/14 05:36:17;;;;;;;0.43;0.22;;;20.80;51.00;;;;;;6273277;28;20045;-52
2023/04/14 05:39:19;;;;;;;0.30;0.20;;;20.60;53.90;;;;;;6273621;28;20041;-54
2023/04/14 05:42:20;;;;;;;0.22;0.20;;;20.40;53.80;;;;;;6273292;28;20041;-52
2023/04/14 05:45:22;;;;;;;0.30;0.20;;;21.00;54.20;;;;;;6273095;28;20084;-53
2023/04/14 05:48:26;;;;;;;0.20;0.10;;;20.70;54.10;;;;;;6273411;28;20041;-53
2023/04/14 05:51:29;;;;;;;0.20;0.20;;;20.60;54.10;;;;;;6273001;28;20127;-52
2023/04/14 05:54:31;;;;;;;0.22;0.22;;;20.50;54.00;;;;;;6272976;28;20049;-52
2023/04/14 05:57:34;;;;;;;0.20;0.20;;;20.50;54.20;;;;;;6273365;28;20045;-51
2023/04/14 06:00:36;;;;;;;0.20;0.20;;;20.30;72.80;;;;;;6255115;28;20045;-51
2023/04/14 06:03:39;;;;;;;0.30;0.13;;;20.40;54.30;;;;;;6273580;28;20045;-53
2023/04/14 06:06:42;;;;;;;0.40;0.20;;;20.70;54.40;;;;;;6272853;28;20047;-54
2023/04/14 06:09:45;;;;;;;;;;;20.70;54.80;;;;;;6273394;28;20045;-50
2023/04/14 06:12:46;;;;;;;0.20;0.20;;;20.30;55.00;;;;;;6272615;28;19928;-51
2023/04/14 06:15:48;;;;;;;0.25;0.20;;;20.60;54.70;;;;;;6273162;28;20072;-53
2023/04/14 06:18:50;;;;;;;0.10;0.10;;;20.60;54.80;;;;;;6272861;28;20493;-53
2023/04/14 06:21:51;;;;;;;0.13;0.10;;;20.70;54.90;;;;;;6272661;28;20079;-52
2023/04/14 06:25:00;;;;;;;0.20;0.20;;;20.30;54.60;;;;;;6272964;28;20041;-52
2023/04/14 06:28:03;;;;;;;0.20;0.20;;;20.40;54.60;;;;;;6272088;28;20523;-52
2023/04/14 06:31:05;;;;;;;;;;;20.90;54.90;;;;;;6272301;28;20080;-54
2023/04/14 06:34:06;;;;;;;0.22;0.20;;;20.80;55.10;;;;;;6271637;28;19928;-54
2023/04/14 06:37:08;;;;;;;;;;;20.80;54.80;;;;;;6272452;28;20084;-53
2023/04/14 06:40:11;;;;;;;0.20;0.20;;;21.20;55.30;;;;;;6271856;28;20342;-55
2023/04/14 06:43:13;;;;;;;0.10;0.10;;;20.60;54.20;;;;;;6272205;28;20099;-54
2023/04/14 06:46:16;;;;;;;0.25;0.20;;;20.50;55.00;;;;;;6271858;28;20041;-55
2023/04/14 06:49:18;;;;;;;0.20;0.20;;;20.70;55.10;;;;;;6271779;28;20041;-53
2023/04/14 06:52:20;;;;;;;0.20;0.20;;;20.80;55.20;;;;;;6271809;28;20053;-54
2023/04/14 06:55:22;;;;;;;;;;;20.50;54.90;;;;;;6271946;28;20087;-50
2023/04/14 06:58:23;;;;;;;0.20;0.20;;;21.10;55.70;;;;;;6271451;28;19936;-50
2023/04/14 07:01:26;;;;;;;;;;;20.60;55.10;;;;;;6271746;28;20114;-50
2023/04/14 07:04:27;;;;;;;1.00;0.13;;;20.90;52.40;;;;;;6271179;28;20288;-50
2023/04/14 07:07:33;;;;;;;;;;;20.90;55.20;;;;;;6271774;28;20043;-54
2023/04/14 07:10:36;;;;;;;0.20;0.10;;;21.30;55.90;;;;;;6271322;28;20313;-51
2023/04/14 07:13:41;;;;;;;0.10;0.10;;;21.00;52.40;;;;;;6271387;28;20049;-53
2023/04/14 07:16:43;;;;;;;0.17;0.17;;;21.10;55.00;;;;;;6271469;28;20045;-54
2023/04/14 07:19:45;;;;;;;;;;;21.00;55.40;;;;;;6272297;28;20048;-53
2023/04/14 07:22:46;;;;;;;;;;;21.10;55.90;;;;;;6271768;28;19921;-53
2023/04/14 07:25:50;;;;;;;0.15;0.10;;;21.10;55.40;;;;;;6271162;28;19924;-51
2023/04/14 07:28:52;;;;;;;1.08;0.20;;;20.60;55.00;;;;;;6253683;28;20041;-50
2023/04/14 07:31:53;;;;;;;0.20;0.20;;;21.10;55.50;;;;;;6270816;28;20533;-53
2023/04/14 07:34:56;;;;;;;0.20;0.20;;;21.20;56.00;;;;;;6271515;28;20441;-50
2023/04/14 07:38:00;;;;;;;0.20;0.20;;;21.20;55.90;;;;;;6271546;28;20100;-52
2023/04/14 07:41:02;;;;;;;;;;;21.10;56.20;;;;;;6270955;28;20048;-51
2023/04/14 07:44:04;;;;;;;0.15;0.15;;;20.90;56.20;;;;;;6270952;28;19927;-51
2023/04/14 07:47:06;;;;;;;0.20;0.20;;;21.10;56.00;;;;;;6274915;28;20124;-50
2023/04/14 07:50:07;;;;;;;;;;;21.10;56.00;;;;;;6275512;28;20044;-54
2023/04/14 07:53:10;;;;;;;0.25;0.20;;;21.30;55.70;;;;;;6274762;28;19994;-50
2023/04/14 07:56:12;;;;;;;0.80;0.40;;;20.80;56.00;;;;;;6274702;28;20044;-49
2023/04/14 07:59:14;;;;;;;0.50;0.30;;;20.80;56.30;;;;;;6257045;28;20447;-47
2023/04/14 08:02:16;;;;;;;0.73;0.40;;;21.10;56.60;;;;;;6274468;28;20049;-49
2023/04/14 08:05:17;;;;;;;0.80;0.40;;;21.30;56.80;;;;;;6274358;28;20053;-52
2023/04/14 08:08:19;;;;;;;0.50;0.38;;;21.50;56.90;;;;;;6274843;28;20041;-49
2023/04/14 08:11:21;;;;;;;;;;;21.10;56.90;;;;;;6275122;28;20527;-51
2023/04/14 08:14:26;;;;;;;0.20;0.10;;;21.20;57.20;;;;;;6274029;28;19920;-52
2023/04/14 08:17:27;;;;;;;0.95;0.28;;;21.20;57.00;;;;;;6274653;28;20099;-53
2023/04/14 08:20:28;;;;;;;;;;;21.00;57.00;;;;;;6275193;28;20098;-52
2023/04/14 08:23:30;;;;;;;0.20;0.15;;;21.50;57.60;;;;;;6274312;28;20292;-50
2023/04/14 08:26:32;;;;;;;0.30;0.20;;;21.20;57.10;;;;;;6274630;28;20096;-51
2023/04/14 08:29:33;;;;;;;0.20;0.15;;;21.20;57.60;;;;;;6256642;28;20048;-53
2023/04/14 08:32:35;;;;;;;;;;;20.90;57.30;;;;;;6274537;28;20052;-51
2023/04/14 08:35:38;;;;;;;0.38;0.25;;;21.40;58.10;;;;;;6274541;28;19975;-52
2023/04/14 08:38:45;;;;;;;0.25;0.25;;;21.30;57.70;;;;;;6274093;28;20526;-49
2023/04/14 08:41:51;;;;;;;0.55;0.30;;;21.30;58.00;;;;;;6274614;28;20095;-52
2023/04/14 08:44:54;;;;;;;0.47;0.30;;;21.20;58.10;;;;;;6256453;28;20047;-48
2023/04/14 08:47:57;;;;;;;0.40;0.30;;;21.10;58.20;;;;;;6273791;28;20033;-52
2023/04/14 08:51:06;;;;;;;0.50;0.40;;;21.20;58.70;;;;;;6256065;28;20049;-52
2023/04/14 08:54:09;;;;;;;0.60;0.30;;;21.40;58.60;;;;;;6275037;28;20448;-48
2023/04/14 08:57:17;;;;;;;0.30;0.30;;;21.30;58.60;;;;;;6255982;28;20033;-49
2023/04/14 09:00:19;;;;;;;0.68;0.30;;;21.10;58.70;;;;;;6273509;28;20037;-52
2023/04/14 09:03:21;;;;;;;0.52;0.38;;;21.40;58.90;;;;;;6273758;28;20040;-53
2023/04/14 09:06:23;;;;;;;0.43;0.30;;;21.60;59.20;;;;;;6273947;28;20044;-50
2023/04/14 09:09:25;;;;;;;0.45;0.30;;;21.40;59.20;;;;;;6274104;28;20511;-49
2023/04/14 09:12:30;;;;;;;0.63;0.43;;;21.40;59.30;;;;;;6273010;28;20037;-50
2023/04/14 09:15:32;;;;;;;0.55;0.30;;;21.00;59.10;;;;;;6273590;28;20167;-50
2023/04/14 09:18:36;;;;;;;0.77;0.40;;;21.60;59.80;;;;;;6272968;28;20045;-50
2023/04/14 09:21:44;;;;;;;0.43;0.40;;;21.40;59.20;;;;;;6272989;28;20512;-54
2023/04/14 09:24:57;;;;;;;0.68;0.47;;;21.20;59.80;;;;;;6273481;28;20044;-52
2023/04/14 09:27:59;;;;;;;1.17;0.50;;;21.00;59.20;;;;;;6273477;28;20041;-54
2023/04/14 09:31:01;;;;;;;0.80;0.43;;;21.60;60.10;;;;;;6273338;28;20408;-52
2023/04/14 09:34:03;;;;;;;1.73;0.30;;;21.30;59.90;;;;;;6273477;28;20424;-53
2023/04/14 09:37:08;;;;;;;1.65;0.50;;;21.60;60.30;;;;;;6273368;28;20094;-52
2023/04/14 09:40:27;;;;;;;0.50;0.30;;;21.40;60.00;;;;;;6273223;28;20041;-50
2023/04/14 09:43:29;;;;;;;0.85;0.50;;;21.60;60.20;;;;;;6273409;28;20037;-50
2023/04/14 09:46:32;;;;;;;0.45;0.32;;;21.20;59.90;;;;;;6273396;28;20381;-52
2023/04/14 09:49:36;;;;;;;0.70;0.40;;;21.50;60.20;;;;;;6273177;28;20069;-50
2023/04/14 09:52:39;;;;;;;0.40;0.28;;;21.30;59.90;;;;;;6273197;28;20059;-52
2023/04/14 09:55:44;;;;;;;1.02;0.55;;;21.70;60.10;;;;;;6255005;28;20033;-52
2023/04/14 09:58:49;;;;;;;0.70;0.38;;;21.30;59.90;;;;;;6255599;28;20488;-52
2023/04/14 10:01:50;;;;;;;0.63;0.40;;;21.10;59.80;;;;;;6273229;28;20052;-50
2023/04/14 10:05:04;;;;;;;0.95;0.50;;;21.60;59.70;;;;;;6273032;28;20044;-50
2023/04/14 10:08:05;;;;;;;0.30;0.30;;;21.60;59.80;;;;;;6254393;28;20132;-49
2023/04/14 10:11:17;;;;;;;0.68;0.30;;;21.70;59.60;;;;;;6272688;28;20077;-52
2023/04/14 10:14:20;;;;;;;0.63;0.47;;;21.60;59.60;;;;;;6254923;28;20048;-47
2023/04/14 10:17:22;;;;;;;0.60;0.45;;;21.30;59.60;;;;;;6272483;28;20049;-51
2023/04/14 10:20:25;;;;;;;1.08;0.40;;;21.50;59.70;;;;;;6272525;28;20075;-49
2023/04/14 10:23:27;;;;;;;0.60;0.30;;;21.80;59.60;;;;;;6272507;28;20090;-51
2023/04/14 10:26:31;;;;;;;0.70;0.38;;;21.70;59.80;;;;;;6254312;28;20041;-49
2023/04/14 10:29:33;;;;;;;0.75;0.40;;;21.70;59.70;;;;;;6272198;28;20427;-49
2023/04/14 10:32:36;;;;;;;0.25;0.20;;;21.50;59.60;;;;;;6272499;28;20033;-51
2023/04/14 10:35:42;;;;;;;1.10;0.57;;;21.60;60.10;;;;;;6272010;28;20048;-51
2023/04/14 10:38:45;;;;;;;0.50;0.30;;;21.50;59.50;;;;;;6272022;28;20037;-53
2023/04/14 10:41:47;;;;;;;0.52;0.38;;;21.60;59.50;;;;;;6272098;28;20044;-49
2023/04/14 10:45:04;;;;;;;0.30;0.30;;;21.70;59.70;;;;;;6271571;28;20523;-51
2023/04/14 10:48:10;;;;;;;0.82;0.40;;;21.70;59.70;;;;;;6238320;28;20045;-52
2023/04/14 10:51:12;;;;;;;0.65;0.40;;;21.90;59.80;;;;;;6271765;28;20067;-53
2023/04/14 10:54:16;;;;;;;1.08;0.55;;;21.30;59.50;;;;;;6271426;28;20044;-47
2023/04/14 10:57:20;;;;;;;0.65;0.50;;;21.40;59.70;;;;;;6254040;28;20048;-53
2023/04/14 11:00:26;;;;;;;0.80;0.45;;;21.60;60.00;;;;;;6271036;28;20041;-53
2023/04/14 11:03:31;;;;;;;0.73;0.50;;;21.60;60.00;;;;;;6271090;28;20416;-50
2023/04/14 11:06:54;;;;;;;1.15;0.30;;;21.70;60.10;;;;;;6254150;28;20416;-52
2023/04/14 11:10:00;;;;;;;0.40;0.30;;;21.50;60.10;;;;;;6254781;28;20040;-49
2023/04/14 11:13:03;;;;;;;0.88;0.57;;;21.40;60.00;;;;;;6271144;28;20110;-52
2023/04/14 11:16:06;;;;;;;0.47;0.35;;;21.70;60.10;;;;;;6270954;28;20041;-52
2023/04/14 11:19:14;;;;;;;1.02;0.55;;;21.10;59.80;;;;;;6273296;28;20552;-51
2023/04/14 11:22:18;;;;;;;0.85;0.40;;;21.10;59.90;;;;;;6258536;28;20392;-52
2023/04/14 11:25:21;;;;;;;0.70;0.30;;;21.40;60.10;;;;;;6225840;28;20148;-47
2023/04/14 11:28:28;;;;;;;1.00;0.50;;;21.70;60.30;;;;;;6276157;28;20381;-53
2023/04/14 11:31:30;;;;;;;1.75;0.60;;;21.70;60.10;;;;;;6275820;28;20064;-52
2023/04/14 11:34:33;;;;;;;0.50;0.30;;;21.60;60.10;;;;;;6257514;28;20508;-52
2023/04/14 11:37:35;;;;;;;1.05;0.40;;;21.40;59.70;;;;;;6275440;28;20033;-49
2023/04/14 11:40:39;;;;;;;0.50;0.30;;;21.50;60.00;;;;;;6275745;28;20477;-52
2023/04/14 11:43:45;;;;;;;0.40;0.30;;;21.80;58.50;;;;;;6275113;28;20128;-51
2023/04/14 11:46:49;;;;;;;0.93;0.35;;;21.40;60.00;;;;;;6276000;28;20107;-52
2023/04/14 11:49:51;;;;;;;0.55;0.30;;;21.70;59.90;;;;;;6275274;28;20370;-52
2023/04/14 11:52:55;;;;;;;;;;;21.70;60.00;;;;;;6275952;28;20041;-50
2023/04/14 11:55:58;;;;;;;0.80;0.30;;;21.60;60.00;;;;;;6275490;28;20001;-49
2023/04/14 11:59:00;;;;;;;0.55;0.40;;;21.50;59.80;;;;;;6274912;28;20116;-50
2023/04/14 12:02:05;;;;;;;0.93;0.40;;;21.60;59.80;;;;;;6257439;28;20041;-49
2023/04/14 12:05:07;;;;;;;0.35;0.35;;;21.60;59.70;;;;;;6274909;28;20113;-47
2023/04/14 12:08:11;;;;;;;1.02;0.52;;;21.70;59.90;;;;;;6274930;28;20053;-48
2023/04/14 12:11:19;;;;;;;1.08;0.38;;;21.70;60.00;;;;;;6274668;28;20112;-49
2023/04/14 12:14:21;;;;;;;1.13;0.52;;;21.20;59.70;;;;;;6257819;28;20056;-51
2023/04/14 12:17:23;;;;;;;0.95;0.20;;;21.60;60.10;;;;;;6274593;28;20489;-46
2023/04/14 12:20:25;;;;;;;0.57;0.32;;;21.50;59.50;;;;;;6275097;28;20053;-46
2023/04/14 12:23:28;;;;;;;0.55;0.30;;;21.60;59.70;;;;;;6274688;28;20523;-47
2023/04/14 12:26:30;;;;;;;0.40;0.30;;;21.50;59.50;;;;;;6274806;28;20033;-46
2023/04/14 12:29:32;;;;;;;;;;;21.70;59.70;;;;;;6274666;28;20118;-49
2023/04/14 12:32:39;;;;;;;0.68;0.20;;;21.70;59.90;;;;;;6255882;28;19927;-47
2023/04/14 12:35:41;;;;;;;0.88;0.38;;;21.70;59.50;;;;;;6274230;28;20087;-48
2023/04/14 12:38:46;;;;;;;;;;;21.60;59.10;;;;;;6274412;28;20124;-49
2023/04/14 12:41:48;;;;;;;0.52;0.35;;;21.70;59.80;;;;;;6273818;28;19921;-48
2023/04/14 12:44:53;;;;;;;;;;;21.50;59.30;;;;;;6274502;28;20380;-49
2023/04/14 12:47:56;;;;;;;1.25;0.40;;;22.20;60.00;;;;;;6274412;28;19928;-48
2023/04/14 12:51:07;;;;;;;0.85;0.40;;;21.50;59.30;;;;;;6273677;28;20052;-48
2023/04/14 12:54:08;;;;;;;0.50;0.38;;;21.70;59.50;;;;;;6256434;28;20045;-51
2023/04/14 12:57:10;;;;;;;0.60;0.30;;;21.60;59.50;;;;;;6274003;28;20126;-47
2023/04/14 13:00:12;;;;;;;1.15;0.40;;;21.70;59.90;;;;;;6273426;28;20496;-50
2023/04/14 13:03:16;;;;;;;0.88;0.38;;;21.60;59.60;;;;;;6273718;28;20045;-49
2023/04/14 13:06:20;;;;;;;0.60;0.30;;;21.70;59.70;;;;;;6273469;28;20037;-49
2023/04/14 13:09:21;;;;;;;1.17;0.50;;;21.30;59.20;;;;;;6256240;28;20052;-47
2023/04/14 13:12:24;;;;;;;;;;;21.50;59.40;;;;;;6274138;28;20045;-49
2023/04/14 13:15:26;;;;;;;1.02;0.50;;;21.70;59.70;;;;;;6273446;28;19921;-47
2023/04/14 13:18:48;;;;;;;0.85;0.50;;;21.60;59.40;;;;;;6258386;28;20407;-50
2023/04/14 13:21:50;;;;;;;0.82;0.30;;;21.50;59.30;;;;;;6273825;28;20048;-47
2023/04/14 13:24:51;;;;;;;;;;;21.60;59.40;;;;;;6273901;28;20045;-44
2023/04/14 13:27:53;;;;;;;1.17;0.55;;;21.50;59.30;;;;;;6273291;28;19924;-48
2023/04/14 13:30:55;;;;;;;0.43;0.35;;;21.70;59.30;;;;;;6273438;28;20546;-48
2023/04/14 13:34:00;;;;;;;1.25;0.35;;;21.90;59.20;;;;;;6273158;28;20049;-49
2023/04/14 13:37:05;;;;;;;1.20;0.40;;;21.80;56.20;;;;;;6273076;28;20114;-50
2023/04/14 13:40:07;;;;;;;1.52;0.30;;;21.80;56.10;;;;;;6255954;28;20080;-48
2023/04/14 13:43:14;;;;;;;0.70;0.20;;;21.50;58.60;;;;;;6272196;28;20056;-45
2023/04/14 13:46:18;;;;;;;0.47;0.28;;;21.70;58.70;;;;;;6255599;28;20072;-50
2023/04/14 13:49:21;;;;;;;0.75;0.40;;;21.60;58.70;;;;;;6272624;28;20476;-46
2023/04/14 13:52:22;;;;;;;1.65;0.50;;;21.80;58.50;;;;;;6273429;28;20396;-47
2023/04/14 13:55:23;;;;;;;;;;;21.50;58.30;;;;;;6273454;28;20412;-48
2023/04/14 13:58:25;;;;;;;0.73;0.40;;;22.00;58.70;;;;;;6255382;28;19928;-46
2023/04/14 14:01:27;;;;;;;0.70;0.30;;;21.60;58.30;;;;;;6273180;28;20040;-48
2023/04/14 14:04:29;;;;;;;1.65;0.52;;;21.90;58.00;;;;;;6272620;28;20591;-50
2023/04/14 14:07:31;;;;;;;0.70;0.40;;;21.60;57.80;;;;;;6272519;28;20075;-48
2023/04/14 14:10:32;;;;;;;;;;;21.60;57.70;;;;;;6273231;28;20041;-48
2023/04/14 14:13:37;;;;;;;0.38;0.28;;;22.20;58.50;;;;;;6272443;28;19928;-49
2023/04/14 14:16:38;;;;;;;0.30;0.30;;;21.90;57.90;;;;;;6272319;28;20049;-51
2023/04/14 14:19:42;;;;;;;1.33;0.50;;;21.90;57.90;;;;;;6272888;28;20043;-50
2023/04/14 14:22:43;;;;;;;0.50;0.30;;;22.00;57.70;;;;;;6272306;28;20044;-47
2023/04/14 14:25:45;;;;;;;;;;;21.90;57.70;;;;;;6272455;28;20048;-47
2023/04/14 14:28:47;;;;;;;0.70;0.28;;;21.60;57.80;;;;;;6272171;28;20372;-46
2023/04/14 14:31:48;;;;;;;0.55;0.20;;;21.90;57.80;;;;;;6272736;28;20045;-49
2023/04/14 14:34:51;;;;;;;0.40;0.30;;;21.90;57.70;;;;;;6271949;28;20063;-46
2023/04/14 14:37:52;;;;;;;0.52;0.20;;;21.70;57.70;;;;;;6271997;28;20045;-45
2023/04/14 14:40:54;;;;;;;;;;;22.40;57.90;;;;;;6272352;28;20527;-47
2023/04/14 14:43:56;;;;;;;1.67;0.30;;;22.30;55.10;;;;;;6271774;28;19928;-49
2023/04/14 14:46:58;;;;;;;0.55;0.32;;;21.90;57.70;;;;;;6272433;28;20041;-48
2023/04/14 14:50:02;;;;;;;0.40;0.20;;;22.00;57.90;;;;;;6271857;28;20053;-49
2023/04/14 14:53:10;;;;;;;0.80;0.30;;;21.80;57.50;;;;;;6271309;28;20045;-50
2023/04/14 14:56:11;;;;;;;1.05;0.68;;;21.60;57.40;;;;;;6272054;28;20037;-50
2023/04/14 14:59:13;;;;;;;;;;;22.10;57.60;;;;;;6272036;28;20040;-50
2023/04/14 15:02:15;;;;;;;0.68;0.30;;;22.20;58.00;;;;;;6271389;28;19924;-48
2023/04/14 15:05:18;;;;;;;0.50;0.20;;;21.60;57.30;;;;;;6247136;28;20050;-50
2023/04/14 15:08:20;;;;;;;0.85;0.30;;;21.80;57.40;;;;;;6247134;28;20038;-50
2023/04/14 15:11:26;;;;;;;2.67;0.30;;;22.00;57.40;;;;;;6246722;28;20049;-51
2023/04/14 15:14:27;;;;;;;0.40;0.22;;;21.90;57.40;;;;;;6247096;28;20539;-52
2023/04/14 15:17:29;;;;;;;;;;;21.80;57.10;;;;;;6247168;28;20064;-49
2023/04/14 15:20:31;;;;;;;0.50;0.40;;;22.50;57.90;;;;;;6247401;28;19927;-53
2023/04/14 15:23:35;;;;;;;0.20;0.20;;;21.80;57.20;;;;;;6246875;28;20045;-50
2023/04/14 15:26:37;;;;;;;0.80;0.30;;;21.80;57.10;;;;;;6246723;28;20513;-51
2023/04/14 15:29:39;;;;;;;0.43;0.40;;;21.90;56.10;;;;;;6212219;28;20053;-52
2023/04/14 15:32:40;;;;;;;1.50;0.50;;;21.70;57.00;;;;;;6247601;28;20056;-52
2023/04/14 15:35:43;;;;;;;1.75;0.30;;;22.10;56.70;;;;;;6247635;28;20071;-51
2023/04/14 15:38:45;;;;;;;0.77;0.30;;;22.10;56.90;;;;;;6248693;28;20432;-52
2023/04/14 15:41:49;;;;;;;1.15;0.50;;;21.60;56.50;;;;;;6247256;28;20049;-50
2023/04/14 15:44:50;;;;;;;0.85;0.30;;;21.70;56.50;;;;;;6247372;28;20072;-51
2023/04/14 15:47:51;;;;;;;;;;;21.70;56.20;;;;;;6247335;28;20057;-52
2023/04/14 15:50:54;;;;;;;0.50;0.28;;;22.60;57.10;;;;;;6246766;28;19928;-49
2023/04/14 15:53:55;;;;;;;0.60;0.17;;;21.80;56.40;;;;;;6246753;28;20053;-51
2023/04/14 15:56:57;;;;;;;0.40;0.30;;;22.20;56.70;;;;;;6247993;28;20141;-51
2023/04/14 15:59:58;;;;;;;;;;;21.90;56.20;;;;;;6247389;28;20041;-52
2023/04/14 16:03:03;;;;;;;0.30;0.20;;;22.50;56.80;;;;;;6247551;28;19947;-50
2023/04/14 16:06:05;;;;;;;1.15;0.30;;;22.00;56.10;;;;;;6215294;28;20045;-52
2023/04/14 16:09:09;;;;;;;0.47;0.28;;;22.10;56.00;;;;;;6250951;28;20046;-51